Time,TemperatureF,DewpointF,PressureIn,WindDirection,WindDirectionDegrees,WindSpeedMPH,WindSpeedGustMPH,Humidity,HourlyPrecipIn,Conditions,Clouds,dailyrainin,SoftwareType,DateUTC
2013-06-07 00:00:00,66.0,64.8,29.70,ESE,110,0.0,0.0,96,0.00,,,0.01,Wunderground v.1.15,2013-06-07 04:00:00,
2013-06-07 00:05:00,66.0,64.8,29.70,ESE,110,0.0,0.0,96,0.00,,,0.00,Wunderground v.1.15,2013-06-07 04:05:00,
2013-06-07 00:10:00,65.9,64.7,29.69,ESE,110,0.0,0.0,96,0.00,,,0.00,Wunderground v.1.15,2013-06-07 04:10:00,
2013-06-07 00:15:00,65.9,64.7,29.69,ESE,110,0.0,0.0,96,0.00,,,0.00,Wunderground v.1.15,2013-06-07 04:15:00,
2013-06-07 00:20:00,65.9,64.7,29.69,ESE,110,0.0,0.0,96,0.00,,,0.00,Wunderground v.1.15,2013-06-07 04:20:00,
2013-06-07 00:25:00,65.8,64.6,29.69,ESE,110,0.0,0.0,96,0.00,,,0.00,Wunderground v.1.15,2013-06-07 04:25:00,
2013-06-07 00:30:00,65.9,64.7,29.69,ESE,110,0.0,0.0,96,0.00,,,0.00,Wunderground v.1.15,2013-06-07 04:30:00,
2013-06-07 00:35:00,65.9,64.7,29.69,ESE,110,0.0,0.0,96,0.00,,,0.00,Wunderground v.1.15,2013-06-07 04:35:00,
2013-06-07 00:40:00,65.9,64.7,29.69,ESE,110,0.0,0.0,96,0.00,,,0.00,Wunderground v.1.15,2013-06-07 04:40:00,
2013-06-07 00:45:00,65.9,64.7,29.68,ESE,110,0.0,0.0,96,0.00,,,0.00,Wunderground v.1.15,2013-06-07 04:45:00,
2013-06-07 00:50:00,65.9,64.7,29.68,ESE,110,0.0,0.0,96,0.00,,,0.00,Wunderground v.1.15,2013-06-07 04:50:00,
2013-06-07 00:55:00,65.9,64.7,29.68,ESE,110,0.0,0.0,96,0.00,,,0.00,Wunderground v.1.15,2013-06-07 04:55:00,
2013-06-07 01:00:00,65.9,64.7,29.67,ESE,110,0.0,0.0,96,0.00,,,0.00,Wunderground v.1.15,2013-06-07 05:00:00,
2013-06-07 01:05:00,65.9,64.7,29.67,ESE,110,0.0,0.0,96,0.00,,,0.00,Wunderground v.1.15,2013-06-07 05:05:00,
2013-06-07 01:10:00,65.8,64.6,29.68,ESE,110,0.0,0.0,96,0.00,,,0.00,Wunderground v.1.15,2013-06-07 05:10:00,
2013-06-07 01:15:00,65.7,64.5,29.68,ESE,110,0.0,0.0,96,0.00,,,0.00,Wunderground v.1.15,2013-06-07 05:15:00,
2013-06-07 01:20:00,65.7,64.5,29.67,ESE,110,0.0,0.0,96,0.00,,,0.00,Wunderground v.1.15,2013-06-07 05:20:00,
2013-06-07 01:25:00,65.7,64.5,29.67,ESE,110,0.0,0.0,96,0.00,,,0.00,Wunderground v.1.15,2013-06-07 05:25:00,
2013-06-07 01:30:00,65.6,64.4,29.67,ESE,110,0.0,0.0,96,0.00,,,0.00,Wunderground v.1.15,2013-06-07 05:30:00,
2013-06-07 01:35:00,65.6,64.4,29.67,ESE,110,0.0,0.0,96,0.00,,,0.00,Wunderground v.1.15,2013-06-07 05:35:00,
2013-06-07 01:40:00,65.7,64.5,29.67,ESE,110,0.0,0.0,96,0.00,,,0.00,Wunderground v.1.15,2013-06-07 05:40:00,
2013-06-07 01:50:00,65.6,64.4,29.67,ESE,110,0.0,0.0,96,0.00,,,0.00,Wunderground v.1.15,2013-06-07 05:50:00,
2013-06-07 01:55:00,65.7,64.5,29.67,ESE,110,0.0,0.0,96,0.00,,,0.00,Wunderground v.1.15,2013-06-07 05:55:00,
2013-06-07 02:00:00,65.7,64.5,29.67,ESE,110,0.0,0.0,96,0.00,,,0.00,Wunderground v.1.15,2013-06-07 06:00:00,
2013-06-07 02:05:00,65.7,64.5,29.67,ESE,110,0.0,0.0,96,0.00,,,0.00,Wunderground v.1.15,2013-06-07 06:05:00,
2013-06-07 02:10:00,65.6,64.4,29.66,ESE,110,0.0,0.0,96,0.00,,,0.00,Wunderground v.1.15,2013-06-07 06:10:00,
2013-06-07 02:15:00,65.6,64.4,29.67,ESE,110,0.0,0.0,96,0.00,,,0.00,Wunderground v.1.15,2013-06-07 06:15:00,
2013-06-07 02:20:00,65.6,64.4,29.66,ESE,110,0.0,0.0,96,0.00,,,0.00,Wunderground v.1.15,2013-06-07 06:20:00,
2013-06-07 02:25:00,65.5,64.3,29.66,ESE,110,0.0,0.0,96,0.00,,,0.00,Wunderground v.1.15,2013-06-07 06:25:00,
2013-06-07 02:30:00,65.5,64.3,29.66,ESE,110,0.0,0.0,96,0.00,,,0.00,Wunderground v.1.15,2013-06-07 06:30:00,
2013-06-07 02:35:00,65.5,64.3,29.65,ESE,110,0.0,0.0,96,0.00,,,0.00,Wunderground v.1.15,2013-06-07 06:35:00,
2013-06-07 02:40:00,65.5,64.3,29.64,ESE,110,0.0,0.0,96,0.00,,,0.00,Wunderground v.1.15,2013-06-07 06:40:00,
2013-06-07 02:45:00,65.5,64.3,29.64,ESE,110,0.0,0.0,96,0.00,,,0.00,Wunderground v.1.15,2013-06-07 06:45:00,
2013-06-07 02:50:00,65.5,64.3,29.65,ESE,110,0.0,0.0,96,0.00,,,0.00,Wunderground v.1.15,2013-06-07 06:50:00,
2013-06-07 02:55:00,65.5,64.3,29.64,ESE,110,0.0,0.0,96,0.00,,,0.00,Wunderground v.1.15,2013-06-07 06:55:00,
2013-06-07 03:00:00,65.5,64.3,29.64,ESE,110,0.0,0.0,96,0.00,,,0.00,Wunderground v.1.15,2013-06-07 07:00:00,
2013-06-07 03:05:00,65.4,64.2,29.64,ESE,110,0.0,0.0,96,0.00,,,0.00,Wunderground v.1.15,2013-06-07 07:05:00,
2013-06-07 03:10:00,65.4,64.2,29.63,ESE,110,0.0,0.0,96,0.00,,,0.00,Wunderground v.1.15,2013-06-07 07:10:00,
2013-06-07 03:15:00,65.3,64.1,29.63,ESE,110,0.0,0.0,96,0.00,,,0.00,Wunderground v.1.15,2013-06-07 07:15:00,
2013-06-07 03:20:00,65.3,64.1,29.63,ESE,110,0.0,0.0,96,0.00,,,0.00,Wunderground v.1.15,2013-06-07 07:20:00,
2013-06-07 03:25:00,65.2,64.0,29.62,ESE,110,0.0,0.0,96,0.00,,,0.00,Wunderground v.1.15,2013-06-07 07:25:00,
2013-06-07 03:30:00,65.2,64.0,29.62,ESE,110,0.0,0.0,96,0.00,,,0.00,Wunderground v.1.15,2013-06-07 07:30:00,
2013-06-07 03:35:00,65.2,64.0,29.62,ESE,110,0.0,0.0,96,0.00,,,0.00,Wunderground v.1.15,2013-06-07 07:35:00,
2013-06-07 03:40:00,65.2,64.0,29.62,ESE,110,0.0,0.0,96,0.00,,,0.00,Wunderground v.1.15,2013-06-07 07:40:00,
2013-06-07 03:50:00,65.2,64.3,29.62,ESE,110,0.0,0.0,97,0.00,,,0.00,Wunderground v.1.15,2013-06-07 07:50:00,
2013-06-07 03:55:00,65.1,64.2,29.62,ESE,110,0.0,0.0,97,0.00,,,0.00,Wunderground v.1.15,2013-06-07 07:55:00,
2013-06-07 04:00:00,65.1,64.2,29.62,ESE,110,0.0,0.0,97,0.00,,,0.00,Wunderground v.1.15,2013-06-07 08:00:00,
2013-06-07 04:05:00,65.0,64.1,29.62,ESE,110,0.0,0.0,97,0.00,,,0.00,Wunderground v.1.15,2013-06-07 08:05:00,
2013-06-07 04:10:00,65.1,64.2,29.62,ESE,110,0.0,0.0,97,0.00,,,0.00,Wunderground v.1.15,2013-06-07 08:10:00,
2013-06-07 04:15:00,65.1,64.2,29.61,ESE,110,0.0,0.0,97,0.00,,,0.00,Wunderground v.1.15,2013-06-07 08:15:00,
2013-06-07 04:20:00,65.0,64.1,29.61,ESE,110,0.0,0.0,97,0.00,,,0.00,Wunderground v.1.15,2013-06-07 08:20:00,
2013-06-07 04:25:00,64.9,64.0,29.61,ESE,110,0.0,0.0,97,0.00,,,0.00,Wunderground v.1.15,2013-06-07 08:25:00,
2013-06-07 04:35:00,64.7,63.8,29.61,ESE,110,0.0,0.0,97,0.00,,,0.00,Wunderground v.1.15,2013-06-07 08:35:00,
2013-06-07 04:40:00,64.7,63.8,29.61,ESE,110,0.0,0.0,97,0.00,,,0.00,Wunderground v.1.15,2013-06-07 08:40:00,
2013-06-07 04:45:00,64.7,63.8,29.61,ESE,110,0.0,0.0,97,0.00,,,0.00,Wunderground v.1.15,2013-06-07 08:45:00,
2013-06-07 04:50:00,64.7,63.8,29.61,ESE,110,0.0,0.0,97,0.00,,,0.00,Wunderground v.1.15,2013-06-07 08:50:00,
2013-06-07 04:55:00,64.7,63.8,29.61,ESE,110,0.0,0.0,97,0.00,,,0.00,Wunderground v.1.15,2013-06-07 08:55:00,
2013-06-07 05:00:00,64.6,63.7,29.61,ESE,110,0.0,0.0,97,0.00,,,0.00,Wunderground v.1.15,2013-06-07 09:00:00,
2013-06-07 05:05:00,64.6,63.7,29.61,ESE,110,0.0,0.0,97,0.00,,,0.00,Wunderground v.1.15,2013-06-07 09:05:00,
2013-06-07 05:10:00,64.6,63.7,29.61,ESE,110,0.0,0.0,97,0.00,,,0.00,Wunderground v.1.15,2013-06-07 09:10:00,
2013-06-07 05:15:00,64.7,63.8,29.61,ESE,110,0.0,0.0,97,0.00,,,0.00,Wunderground v.1.15,2013-06-07 09:15:00,
2013-06-07 05:20:00,64.7,63.8,29.61,ESE,110,0.0,0.0,97,0.00,,,0.00,Wunderground v.1.15,2013-06-07 09:20:00,
2013-06-07 05:25:00,64.7,63.8,29.61,ESE,110,0.0,0.0,97,0.00,,,0.00,Wunderground v.1.15,2013-06-07 09:25:00,
2013-06-07 05:30:00,64.7,63.8,29.61,ESE,110,0.0,0.0,97,0.00,,,0.00,Wunderground v.1.15,2013-06-07 09:30:00,
2013-06-07 05:35:00,64.7,63.8,29.61,ESE,110,0.0,0.0,97,0.00,,,0.00,Wunderground v.1.15,2013-06-07 09:35:00,
2013-06-07 05:40:00,64.7,63.8,29.61,ESE,110,0.0,0.0,97,0.00,,,0.00,Wunderground v.1.15,2013-06-07 09:40:00,
2013-06-07 05:45:00,64.7,63.8,29.61,ESE,110,0.0,0.0,97,0.00,,,0.00,Wunderground v.1.15,2013-06-07 09:45:00,
2013-06-07 05:50:00,64.7,64.1,29.61,ESE,110,0.0,0.0,98,0.00,,,0.00,Wunderground v.1.15,2013-06-07 09:50:00,
2013-06-07 05:55:00,64.7,64.1,29.61,ESE,110,0.0,0.0,98,0.00,,,0.00,Wunderground v.1.15,2013-06-07 09:55:00,
2013-06-07 06:00:00,64.7,64.1,29.60,ESE,110,0.0,0.0,98,0.00,,,0.00,Wunderground v.1.15,2013-06-07 10:00:00,
2013-06-07 06:05:00,64.7,64.1,29.61,ESE,110,0.0,0.0,98,0.00,,,0.00,Wunderground v.1.15,2013-06-07 10:05:00,
2013-06-07 06:10:00,64.8,64.2,29.61,ESE,110,0.0,0.0,98,0.00,,,0.00,Wunderground v.1.15,2013-06-07 10:10:00,
2013-06-07 06:15:00,64.8,64.2,29.61,ESE,110,0.0,0.0,98,0.00,,,0.00,Wunderground v.1.15,2013-06-07 10:15:00,
2013-06-07 06:20:00,64.8,64.2,29.61,ESE,110,0.0,0.0,98,0.00,,,0.00,Wunderground v.1.15,2013-06-07 10:20:00,
2013-06-07 06:25:00,64.8,64.2,29.62,ESE,110,0.0,0.0,98,0.00,,,0.00,Wunderground v.1.15,2013-06-07 10:25:00,
2013-06-07 06:30:00,64.8,64.2,29.62,ESE,110,0.0,0.0,98,0.00,,,0.00,Wunderground v.1.15,2013-06-07 10:30:00,
2013-06-07 06:35:00,64.8,64.2,29.62,ESE,110,0.0,0.0,98,0.00,,,0.00,Wunderground v.1.15,2013-06-07 10:35:00,
2013-06-07 06:40:00,64.8,64.2,29.62,ESE,110,0.0,0.0,98,0.00,,,0.00,Wunderground v.1.15,2013-06-07 10:40:00,
2013-06-07 06:45:00,64.8,64.2,29.62,ESE,110,0.0,0.0,98,0.00,,,0.00,Wunderground v.1.15,2013-06-07 10:45:00,
2013-06-07 06:50:00,64.8,64.2,29.62,ESE,110,0.0,0.0,98,0.00,,,0.00,Wunderground v.1.15,2013-06-07 10:50:00,
2013-06-07 06:55:00,64.8,64.2,29.62,ESE,110,0.0,0.0,98,0.00,,,0.00,Wunderground v.1.15,2013-06-07 10:55:00,
2013-06-07 07:00:00,64.8,64.2,29.63,ESE,110,0.0,0.0,98,0.00,,,0.00,Wunderground v.1.15,2013-06-07 11:00:00,
2013-06-07 07:05:00,64.8,64.2,29.63,ESE,110,0.0,0.0,98,0.00,,,0.00,Wunderground v.1.15,2013-06-07 11:05:00,
2013-06-07 07:10:00,64.8,64.2,29.63,ESE,110,0.0,0.0,98,0.00,,,0.00,Wunderground v.1.15,2013-06-07 11:10:00,
2013-06-07 07:15:00,64.8,64.2,29.62,ESE,110,0.0,0.0,98,0.00,,,0.00,Wunderground v.1.15,2013-06-07 11:15:00,
2013-06-07 07:20:00,64.9,64.3,29.63,ESE,110,0.0,0.0,98,0.00,,,0.00,Wunderground v.1.15,2013-06-07 11:20:00,
2013-06-07 07:25:00,64.9,64.3,29.63,ESE,110,0.0,0.0,98,0.00,,,0.00,Wunderground v.1.15,2013-06-07 11:25:00,
2013-06-07 07:30:00,64.9,64.3,29.63,ESE,110,0.0,0.0,98,0.00,,,0.00,Wunderground v.1.15,2013-06-07 11:30:00,
2013-06-07 07:35:00,64.9,64.3,29.63,ESE,110,0.0,0.0,98,0.00,,,0.00,Wunderground v.1.15,2013-06-07 11:35:00,
2013-06-07 07:40:00,64.8,64.2,29.63,ESE,110,0.0,0.0,98,0.00,,,0.00,Wunderground v.1.15,2013-06-07 11:40:00,
2013-06-07 07:45:00,64.8,64.2,29.63,ESE,110,0.0,0.0,98,0.00,,,0.00,Wunderground v.1.15,2013-06-07 11:45:00,
2013-06-07 07:50:00,64.9,64.3,29.63,ESE,110,0.0,0.0,98,0.00,,,0.00,Wunderground v.1.15,2013-06-07 11:50:00,
2013-06-07 07:55:00,64.9,64.3,29.63,ESE,110,0.0,0.0,98,0.00,,,0.00,Wunderground v.1.15,2013-06-07 11:55:00,
2013-06-07 08:00:00,65.0,64.4,29.63,ESE,110,0.0,0.0,98,0.00,,,0.00,Wunderground v.1.15,2013-06-07 12:00:00,
2013-06-07 08:05:00,65.1,64.5,29.63,ESE,110,0.0,0.0,98,0.00,,,0.00,Wunderground v.1.15,2013-06-07 12:05:00,
2013-06-07 08:10:00,65.2,64.6,29.63,ESE,110,0.0,0.0,98,0.00,,,0.00,Wunderground v.1.15,2013-06-07 12:10:00,
2013-06-07 08:15:00,65.3,64.7,29.63,ESE,110,0.0,0.0,98,0.00,,,0.00,Wunderground v.1.15,2013-06-07 12:15:00,
2013-06-07 08:20:00,65.4,64.8,29.64,ESE,110,0.0,0.0,98,0.00,,,0.00,Wunderground v.1.15,2013-06-07 12:20:00,
2013-06-07 08:25:00,65.4,64.8,29.64,ESE,110,0.0,0.0,98,0.00,,,0.00,Wunderground v.1.15,2013-06-07 12:25:00,
2013-06-07 08:30:00,65.5,64.9,29.64,ESE,110,0.0,0.0,98,0.00,,,0.00,Wunderground v.1.15,2013-06-07 12:30:00,
2013-06-07 08:35:00,65.5,64.9,29.64,ESE,110,0.0,0.0,98,0.00,,,0.00,Wunderground v.1.15,2013-06-07 12:35:00,
2013-06-07 08:40:00,65.5,64.9,29.64,ESE,110,0.0,0.0,98,0.00,,,0.00,Wunderground v.1.15,2013-06-07 12:40:00,
2013-06-07 08:45:00,65.5,64.9,29.64,ESE,110,0.0,0.0,98,0.00,,,0.00,Wunderground v.1.15,2013-06-07 12:45:00,
2013-06-07 08:50:00,65.7,65.1,29.65,ESE,110,0.0,0.0,98,0.00,,,0.00,Wunderground v.1.15,2013-06-07 12:50:00,
2013-06-07 08:55:00,65.9,65.3,29.65,ESE,110,0.0,0.0,98,0.00,,,0.00,Wunderground v.1.15,2013-06-07 12:55:00,
2013-06-07 09:00:00,66.0,65.4,29.64,ESE,110,0.0,0.0,98,0.00,,,0.00,Wunderground v.1.15,2013-06-07 13:00:00,
2013-06-07 09:05:00,66.1,65.5,29.65,ESE,110,0.0,0.0,98,0.00,,,0.00,Wunderground v.1.15,2013-06-07 13:05:00,
2013-06-07 09:10:00,66.2,65.3,29.65,ESE,110,0.0,0.0,97,0.00,,,0.00,Wunderground v.1.15,2013-06-07 13:10:00,
2013-06-07 09:15:00,66.4,65.8,29.65,ESE,110,0.0,0.0,98,0.00,,,0.00,Wunderground v.1.15,2013-06-07 13:15:00,
2013-06-07 09:20:00,66.7,66.1,29.65,ESE,110,0.0,0.0,98,0.00,,,0.00,Wunderground v.1.15,2013-06-07 13:20:00,
2013-06-07 09:25:00,67.1,66.5,29.65,ESE,110,0.0,0.0,98,0.00,,,0.00,Wunderground v.1.15,2013-06-07 13:25:00,
2013-06-07 09:30:00,67.7,67.1,29.65,ESE,110,0.0,0.0,98,0.00,,,0.00,Wunderground v.1.15,2013-06-07 13:30:00,
2013-06-07 09:35:00,68.0,67.1,29.65,ESE,110,0.0,0.0,97,0.00,,,0.00,Wunderground v.1.15,2013-06-07 13:35:00,
2013-06-07 09:40:00,68.3,67.1,29.66,ESE,110,0.0,0.0,96,0.00,,,0.00,Wunderground v.1.15,2013-06-07 13:40:00,
2013-06-07 09:50:00,68.6,66.5,29.65,ESE,110,0.0,0.0,93,0.00,,,0.00,Wunderground v.1.15,2013-06-07 13:50:00,
2013-06-07 09:55:00,69.0,67.2,29.65,ESE,110,0.0,0.0,94,0.00,,,0.00,Wunderground v.1.15,2013-06-07 13:55:00,
2013-06-07 10:00:00,69.9,67.8,29.66,ESE,110,0.0,0.0,93,0.00,,,0.00,Wunderground v.1.15,2013-06-07 14:00:00,
2013-06-07 10:05:00,71.1,68.7,29.66,South,187,0.0,0.0,92,0.00,,,0.00,Wunderground v.1.15,2013-06-07 14:05:00,
2013-06-07 10:15:00,72.9,68.8,29.66,West,261,0.0,0.0,87,0.00,,,0.00,Wunderground v.1.15,2013-06-07 14:15:00,
2013-06-07 10:20:00,73.4,68.6,29.66,WSW,254,0.0,0.0,85,0.00,,,0.00,Wunderground v.1.15,2013-06-07 14:20:00,
2013-06-07 10:25:00,73.8,69.3,29.66,WSW,255,0.0,0.0,86,0.00,,,0.00,Wunderground v.1.15,2013-06-07 14:25:00,
2013-06-07 10:30:00,74.1,69.3,29.66,WSW,254,0.0,0.0,85,0.00,,,0.00,Wunderground v.1.15,2013-06-07 14:30:00,
2013-06-07 10:35:00,74.4,69.6,29.66,West,259,0.0,0.0,85,0.00,,,0.00,Wunderground v.1.15,2013-06-07 14:35:00,
2013-06-07 10:40:00,74.4,68.5,29.66,West,259,0.0,0.0,82,0.00,,,0.00,Wunderground v.1.15,2013-06-07 14:40:00,
2013-06-07 10:45:00,74.5,69.3,29.65,West,259,0.0,0.0,84,0.00,,,0.00,Wunderground v.1.15,2013-06-07 14:45:00,
2013-06-07 10:50:00,74.4,68.5,29.66,West,259,0.0,0.0,82,0.00,,,0.00,Wunderground v.1.15,2013-06-07 14:50:00,
2013-06-07 10:55:00,74.3,68.4,29.65,West,259,0.0,0.0,82,0.00,,,0.00,Wunderground v.1.15,2013-06-07 14:55:00,
2013-06-07 11:00:00,74.4,69.2,29.65,West,259,0.0,0.0,84,0.00,,,0.00,Wunderground v.1.15,2013-06-07 15:00:00,
2013-06-07 11:05:00,74.5,68.6,29.66,West,259,0.0,0.0,82,0.00,,,0.00,Wunderground v.1.15,2013-06-07 15:05:00,
2013-06-07 11:10:00,74.7,69.5,29.66,West,259,0.0,0.0,84,0.00,,,0.00,Wunderground v.1.15,2013-06-07 15:10:00,
2013-06-07 11:15:00,75.0,69.1,29.65,West,259,0.0,0.0,82,0.00,,,0.00,Wunderground v.1.15,2013-06-07 15:15:00,
2013-06-07 11:20:00,74.9,69.7,29.65,WSW,257,0.0,0.0,84,0.00,,,0.00,Wunderground v.1.15,2013-06-07 15:20:00,
2013-06-07 11:25:00,75.1,69.9,29.65,WSW,257,0.0,0.0,84,0.00,,,0.00,Wunderground v.1.15,2013-06-07 15:25:00,
2013-06-07 11:30:00,75.7,70.2,29.65,WSW,257,0.0,0.0,83,0.00,,,0.00,Wunderground v.1.15,2013-06-07 15:30:00,
2013-06-07 11:35:00,76.1,70.2,29.65,WSW,258,0.0,0.0,82,0.00,,,0.00,Wunderground v.1.15,2013-06-07 15:35:00,
2013-06-07 11:40:00,76.7,70.4,29.65,WSW,253,0.0,0.0,81,0.00,,,0.00,Wunderground v.1.15,2013-06-07 15:40:00,
2013-06-07 11:45:00,77.1,69.7,29.65,WSW,256,0.0,0.0,78,0.00,,,0.00,Wunderground v.1.15,2013-06-07 15:45:00,
2013-06-07 11:50:00,77.5,70.1,29.65,NW,310,0.0,0.0,78,0.00,,,0.00,Wunderground v.1.15,2013-06-07 15:50:00,
2013-06-07 11:55:00,77.8,70.4,29.65,West,259,0.0,0.0,78,0.00,,,0.00,Wunderground v.1.15,2013-06-07 15:55:00,
2013-06-07 12:00:00,78.2,70.8,29.66,West,259,0.0,0.0,78,0.00,,,0.00,Wunderground v.1.15,2013-06-07 16:00:00,
2013-06-07 12:05:00,78.7,72.0,29.66,WSW,252,0.0,0.0,80,0.00,,,0.00,Wunderground v.1.15,2013-06-07 16:05:00,
2013-06-07 12:10:00,78.9,70.7,29.66,WSW,252,0.0,0.0,76,0.00,,,0.00,Wunderground v.1.15,2013-06-07 16:10:00,
2013-06-07 12:15:00,79.3,71.8,29.66,WSW,253,0.0,0.0,78,0.00,,,0.00,Wunderground v.1.15,2013-06-07 16:15:00,
2013-06-07 12:20:00,79.6,70.2,29.66,WSW,251,0.0,0.0,73,0.00,,,0.00,Wunderground v.1.15,2013-06-07 16:20:00,
2013-06-07 12:25:00,79.9,71.7,29.66,WSW,252,0.0,0.0,76,0.00,,,0.00,Wunderground v.1.15,2013-06-07 16:25:00,
2013-06-07 12:30:00,79.9,70.9,29.66,WSW,252,0.0,0.0,74,0.00,,,0.00,Wunderground v.1.15,2013-06-07 16:30:00,
2013-06-07 12:35:00,80.2,71.6,29.66,WSW,245,0.0,0.0,75,0.00,,,0.00,Wunderground v.1.15,2013-06-07 16:35:00,
2013-06-07 12:40:00,80.6,71.9,29.66,WSW,245,0.0,0.0,75,0.00,,,0.00,Wunderground v.1.15,2013-06-07 16:40:00,
2013-06-07 12:45:00,80.7,70.4,29.66,WSW,245,0.0,0.0,71,0.00,,,0.00,Wunderground v.1.15,2013-06-07 16:45:00,
2013-06-07 12:55:00,80.2,70.4,29.66,WSW,245,0.0,0.0,72,0.00,,,0.00,Wunderground v.1.15,2013-06-07 16:55:00,
2013-06-07 13:00:00,80.3,71.6,29.66,WSW,246,0.0,0.0,75,0.00,,,0.00,Wunderground v.1.15,2013-06-07 17:00:00,
2013-06-07 13:05:00,80.2,69.5,29.66,WSW,246,0.0,0.0,70,0.00,,,0.00,Wunderground v.1.15,2013-06-07 17:05:00,
2013-06-07 13:10:00,79.8,70.0,29.65,WSW,246,0.0,0.0,72,0.00,,,0.00,Wunderground v.1.15,2013-06-07 17:10:00,
2013-06-07 13:15:00,79.7,70.3,29.65,WSW,245,0.0,0.0,73,0.00,,,0.00,Wunderground v.1.15,2013-06-07 17:15:00,
2013-06-07 13:20:00,80.1,71.5,29.66,WSW,246,0.0,0.0,75,0.00,,,0.00,Wunderground v.1.15,2013-06-07 17:20:00,
2013-06-07 13:25:00,80.8,70.5,29.65,WSW,246,0.0,0.0,71,0.00,,,0.00,Wunderground v.1.15,2013-06-07 17:25:00,
2013-06-07 13:30:00,81.5,71.2,29.65,WSW,245,0.0,0.0,71,0.00,,,0.00,Wunderground v.1.15,2013-06-07 17:30:00,
2013-06-07 13:35:00,81.9,70.3,29.65,WSW,246,0.0,0.0,68,0.00,,,0.00,Wunderground v.1.15,2013-06-07 17:35:00,
2013-06-07 13:40:00,82.4,69.9,29.65,WSW,247,0.0,0.0,66,0.00,,,0.00,Wunderground v.1.15,2013-06-07 17:40:00,
2013-06-07 13:45:00,82.9,71.7,29.64,WSW,246,0.0,0.0,69,0.00,,,0.00,Wunderground v.1.15,2013-06-07 17:45:00,
2013-06-07 13:50:00,83.5,71.8,29.64,WSW,248,0.0,0.0,68,0.00,,,0.00,Wunderground v.1.15,2013-06-07 17:50:00,
2013-06-07 13:55:00,83.8,70.8,29.65,WSW,248,0.0,0.0,65,0.00,,,0.00,Wunderground v.1.15,2013-06-07 17:55:00,
2013-06-07 14:00:00,84.4,71.3,29.65,WSW,248,0.0,1.0,65,0.00,,,0.00,Wunderground v.1.15,2013-06-07 18:00:00,
2013-06-07 14:05:00,84.8,70.3,29.65,West,266,0.0,1.0,62,0.00,,,0.00,Wunderground v.1.15,2013-06-07 18:05:00,
2013-06-07 14:15:00,85.5,68.5,29.64,West,265,0.0,0.0,57,0.00,,,0.00,Wunderground v.1.15,2013-06-07 18:15:00,
2013-06-07 14:20:00,85.5,68.5,29.64,WSW,246,0.0,0.0,57,0.00,,,0.00,Wunderground v.1.15,2013-06-07 18:20:00,
2013-06-07 14:25:00,85.2,70.2,29.63,WSW,246,0.0,0.0,61,0.00,,,0.00,Wunderground v.1.15,2013-06-07 18:25:00,
2013-06-07 14:30:00,85.4,71.8,29.64,WSW,248,0.0,0.0,64,0.00,,,0.00,Wunderground v.1.15,2013-06-07 18:30:00,
2013-06-07 14:35:00,85.5,71.5,29.64,WSW,249,0.0,0.0,63,0.00,,,0.00,Wunderground v.1.15,2013-06-07 18:35:00,
2013-06-07 14:50:00,84.6,71.1,29.64,West,267,0.0,0.0,64,0.00,,,0.00,Wunderground v.1.15,2013-06-07 18:50:00,
2013-06-07 14:55:00,84.3,69.4,29.64,West,267,0.0,0.0,61,0.00,,,0.00,Wunderground v.1.15,2013-06-07 18:55:00,
2013-06-07 15:00:00,83.9,70.0,29.64,West,267,0.0,0.0,63,0.00,,,0.00,Wunderground v.1.15,2013-06-07 19:00:00,
2013-06-07 15:05:00,83.3,69.8,29.63,West,267,0.0,0.0,64,0.00,,,0.00,Wunderground v.1.15,2013-06-07 19:05:00,
2013-06-07 15:10:00,82.7,70.2,29.64,West,267,0.0,0.0,66,0.00,,,0.00,Wunderground v.1.15,2013-06-07 19:10:00,
2013-06-07 15:15:00,82.2,71.0,29.64,West,267,0.0,0.0,69,0.00,,,0.00,Wunderground v.1.15,2013-06-07 19:15:00,
2013-06-07 15:20:00,81.6,70.0,29.63,West,267,0.0,0.0,68,0.00,,,0.00,Wunderground v.1.15,2013-06-07 19:20:00,
2013-06-07 15:25:00,81.4,69.8,29.63,West,267,0.0,0.0,68,0.00,,,0.00,Wunderground v.1.15,2013-06-07 19:25:00,
2013-06-07 15:30:00,81.7,66.0,29.63,West,267,0.0,0.0,59,0.00,,,0.00,Wunderground v.1.15,2013-06-07 19:30:00,
2013-06-07 15:35:00,82.2,68.8,29.62,West,267,0.0,0.0,64,0.00,,,0.00,Wunderground v.1.15,2013-06-07 19:35:00,
2013-06-07 15:40:00,82.5,66.7,29.63,West,262,0.0,0.0,59,0.00,,,0.00,Wunderground v.1.15,2013-06-07 19:40:00,
2013-06-07 15:45:00,83.0,70.9,29.63,West,261,0.0,0.0,67,0.00,,,0.00,Wunderground v.1.15,2013-06-07 19:45:00,
2013-06-07 15:50:00,83.2,67.4,29.63,WSW,252,0.0,0.0,59,0.00,,,0.00,Wunderground v.1.15,2013-06-07 19:50:00,
2013-06-07 15:55:00,83.4,69.5,29.62,WSW,252,0.0,0.0,63,0.00,,,0.00,Wunderground v.1.15,2013-06-07 19:55:00,
2013-06-07 16:00:00,83.8,68.9,29.62,WSW,252,0.0,0.0,61,0.00,,,0.00,Wunderground v.1.15,2013-06-07 20:00:00,
2013-06-07 16:06:00,84.4,69.0,29.62,WSW,254,0.0,0.0,60,0.00,,,0.00,Wunderground v.1.15,2013-06-07 20:06:00,
2013-06-07 16:10:00,84.6,67.2,29.62,WSW,253,0.0,0.0,56,0.00,,,0.00,Wunderground v.1.15,2013-06-07 20:10:00,
2013-06-07 16:15:00,84.3,67.4,29.61,WSW,252,0.0,0.0,57,0.00,,,0.00,Wunderground v.1.15,2013-06-07 20:15:00,
2013-06-07 16:20:00,83.9,67.5,29.62,WSW,252,0.0,0.0,58,0.00,,,0.00,Wunderground v.1.15,2013-06-07 20:20:00,
2013-06-07 16:25:00,83.4,68.5,29.61,WSW,253,0.0,0.0,61,0.00,,,0.00,Wunderground v.1.15,2013-06-07 20:25:00,
2013-06-07 16:30:00,82.7,67.9,29.61,WSW,253,0.0,0.0,61,0.00,,,0.00,Wunderground v.1.15,2013-06-07 20:30:00,
2013-06-07 16:35:00,82.1,69.2,29.61,WSW,253,0.0,0.0,65,0.00,,,0.00,Wunderground v.1.15,2013-06-07 20:35:00,
2013-06-07 16:40:00,81.4,69.8,29.62,WSW,253,0.0,2.0,68,0.00,,,0.00,Wunderground v.1.15,2013-06-07 20:40:00,
2013-06-07 16:50:00,79.3,69.1,29.62,SSE,161,0.0,0.0,71,0.00,,,0.01,Wunderground v.1.15,2013-06-07 20:50:00,
2013-06-07 16:55:00,78.0,69.8,29.63,SSE,161,0.0,0.0,76,0.28,,,0.03,Wunderground v.1.15,2013-06-07 20:55:00,
2013-06-07 17:00:00,76.4,68.7,29.64,SSE,161,0.0,0.0,77,0.17,,,0.05,Wunderground v.1.15,2013-06-07 21:00:00,
2013-06-07 17:05:00,75.0,68.4,29.64,SSE,161,0.0,0.0,80,0.19,,,0.07,Wunderground v.1.15,2013-06-07 21:05:00,
2013-06-07 17:10:00,73.8,67.6,29.65,SSE,161,0.0,0.0,81,0.21,,,0.09,Wunderground v.1.15,2013-06-07 21:10:00,
2013-06-07 17:15:00,72.3,66.8,29.65,SSE,161,0.0,0.0,83,0.09,,,0.09,Wunderground v.1.15,2013-06-07 21:15:00,
2013-06-07 17:20:00,71.2,66.1,29.65,SSE,161,0.0,0.0,84,0.07,,,0.10,Wunderground v.1.15,2013-06-07 21:20:00,
2013-06-07 17:25:00,70.0,65.6,29.66,SSE,161,0.0,0.0,86,0.07,,,0.10,Wunderground v.1.15,2013-06-07 21:25:00,
2013-06-07 17:30:00,68.7,65.3,29.67,SSE,159,0.0,3.0,89,0.07,,,0.11,Wunderground v.1.15,2013-06-07 21:30:00,
2013-06-07 17:35:00,67.6,64.9,29.67,SSE,157,1.0,3.0,91,0.07,,,0.11,Wunderground v.1.15,2013-06-07 21:35:00,
2013-06-07 17:40:00,67.1,64.7,29.68,SSE,156,0.0,0.0,92,0.04,,,0.11,Wunderground v.1.15,2013-06-07 21:40:00,
2013-06-07 17:45:00,66.9,64.8,29.68,SSE,157,0.0,0.0,93,0.00,,,0.11,Wunderground v.1.15,2013-06-07 21:45:00,
2013-06-07 17:50:00,66.7,64.9,29.68,SSE,157,0.0,0.0,94,0.19,,,0.13,Wunderground v.1.15,2013-06-07 21:50:00,
2013-06-07 17:55:00,66.3,64.2,29.68,SSE,156,0.0,0.0,93,0.11,,,0.13,Wunderground v.1.15,2013-06-07 21:55:00,
2013-06-07 18:05:00,65.6,63.8,29.68,SSE,155,0.0,0.0,94,0.25,,,0.16,Wunderground v.1.15,2013-06-07 22:05:00,
2013-06-07 18:15:00,64.6,62.8,29.68,SSE,155,0.0,0.0,94,0.37,,,0.22,Wunderground v.1.15,2013-06-07 22:15:00,
2013-06-07 18:20:00,64.1,62.0,29.68,SSE,155,0.0,0.0,93,0.27,,,0.24,Wunderground v.1.15,2013-06-07 22:20:00,
2013-06-07 18:25:00,64.0,62.5,29.68,SSE,155,0.0,0.0,95,0.11,,,0.24,Wunderground v.1.15,2013-06-07 22:25:00,
2013-06-07 18:30:00,64.0,62.5,29.68,SSE,155,0.0,0.0,95,0.06,,,0.24,Wunderground v.1.15,2013-06-07 22:30:00,
2013-06-07 18:35:00,64.0,62.5,29.69,SSE,155,0.0,0.0,95,0.04,,,0.24,Wunderground v.1.15,2013-06-07 22:35:00,
2013-06-07 18:40:00,64.1,62.9,29.69,SSE,155,0.0,0.0,96,0.04,,,0.25,Wunderground v.1.15,2013-06-07 22:40:00,
2013-06-07 18:50:00,64.8,63.9,29.69,SSE,156,0.0,0.0,97,0.04,,,0.25,Wunderground v.1.15,2013-06-07 22:50:00,
2013-06-07 18:55:00,64.8,63.6,29.70,SSE,156,0.0,0.0,96,0.00,,,0.25,Wunderground v.1.15,2013-06-07 22:55:00,
2013-06-07 19:00:00,64.6,63.4,29.70,SSE,156,0.0,0.0,96,0.13,,,0.27,Wunderground v.1.15,2013-06-07 23:00:00,
2013-06-07 19:05:00,64.4,63.2,29.70,SSE,156,0.0,0.0,96,1.78,,,0.38,Wunderground v.1.15,2013-06-07 23:05:00,
2013-06-07 19:15:00,64.4,63.2,29.70,SSE,156,0.0,0.0,96,0.14,,,0.44,Wunderground v.1.15,2013-06-07 23:15:00,
2013-06-07 19:20:00,64.4,63.2,29.71,SSE,156,0.0,0.0,96,0.06,,,0.44,Wunderground v.1.15,2013-06-07 23:20:00,
2013-06-07 19:25:00,64.4,63.5,29.71,SSE,156,0.0,0.0,97,0.06,,,0.45,Wunderground v.1.15,2013-06-07 23:25:00,
2013-06-07 19:30:00,64.3,63.1,29.71,SSE,156,0.0,0.0,96,0.06,,,0.45,Wunderground v.1.15,2013-06-07 23:30:00,
2013-06-07 19:40:00,64.2,63.0,29.71,SSE,156,0.0,0.0,96,0.00,,,0.45,Wunderground v.1.15,2013-06-07 23:40:00,
2013-06-07 19:45:00,64.1,62.9,29.70,SSE,156,0.0,0.0,96,0.00,,,0.45,Wunderground v.1.15,2013-06-07 23:45:00,
2013-06-07 19:50:00,63.8,62.6,29.70,SSE,156,0.0,0.0,96,0.00,,,0.45,Wunderground v.1.15,2013-06-07 23:50:00,
2013-06-07 19:55:00,63.6,62.4,29.70,SSE,156,0.0,0.0,96,0.00,,,0.45,Wunderground v.1.15,2013-06-07 23:55:00,
2013-06-07 20:00:00,63.6,62.4,29.70,SSE,156,0.0,0.0,96,0.00,,,0.45,Wunderground v.1.15,2013-06-08 00:00:00,
2013-06-07 20:05:00,63.6,62.4,29.70,SSE,156,0.0,0.0,96,0.00,,,0.45,Wunderground v.1.15,2013-06-08 00:05:00,
2013-06-07 20:10:00,63.5,62.3,29.70,SSE,156,0.0,0.0,96,0.00,,,0.45,Wunderground v.1.15,2013-06-08 00:10:00,
2013-06-07 20:15:00,63.5,62.6,29.71,SSE,156,0.0,0.0,97,0.00,,,0.45,Wunderground v.1.15,2013-06-08 00:15:00,
2013-06-07 20:20:00,63.5,62.6,29.71,SSE,156,0.0,0.0,97,0.00,,,0.45,Wunderground v.1.15,2013-06-08 00:20:00,
2013-06-07 20:25:00,63.5,62.6,29.71,SSE,156,0.0,0.0,97,0.00,,,0.45,Wunderground v.1.15,2013-06-08 00:25:00,
2013-06-07 20:30:00,63.4,62.5,29.71,SSE,156,0.0,0.0,97,0.00,,,0.45,Wunderground v.1.15,2013-06-08 00:30:00,
2013-06-07 20:35:00,63.4,62.5,29.71,SSE,156,0.0,0.0,97,0.00,,,0.45,Wunderground v.1.15,2013-06-08 00:35:00,
2013-06-07 20:40:00,63.2,62.3,29.71,SSE,156,0.0,0.0,97,0.00,,,0.45,Wunderground v.1.15,2013-06-08 00:40:00,
2013-06-07 20:45:00,63.1,62.2,29.71,SSE,156,0.0,0.0,97,0.00,,,0.45,Wunderground v.1.15,2013-06-08 00:45:00,
2013-06-07 20:50:00,63.0,61.8,29.72,SSE,156,0.0,0.0,96,0.00,,,0.45,Wunderground v.1.15,2013-06-08 00:50:00,
2013-06-07 20:55:00,63.0,62.1,29.72,SSE,156,0.0,0.0,97,0.00,,,0.45,Wunderground v.1.15,2013-06-08 00:55:00,
2013-06-07 21:05:00,62.9,62.0,29.71,SSE,156,0.0,0.0,97,0.00,,,0.46,Wunderground v.1.15,2013-06-08 01:05:00,
2013-06-07 21:10:00,62.9,62.0,29.71,SSE,156,0.0,0.0,97,0.00,,,0.46,Wunderground v.1.15,2013-06-08 01:10:00,
2013-06-07 21:15:00,62.9,62.0,29.71,SSE,156,0.0,0.0,97,0.00,,,0.46,Wunderground v.1.15,2013-06-08 01:15:00,
2013-06-07 21:20:00,62.9,62.0,29.72,SSE,156,0.0,0.0,97,0.00,,,0.46,Wunderground v.1.15,2013-06-08 01:20:00,
2013-06-07 21:25:00,62.9,62.0,29.72,SSE,156,0.0,0.0,97,0.00,,,0.46,Wunderground v.1.15,2013-06-08 01:25:00,
2013-06-07 21:30:00,63.0,62.1,29.72,SSE,156,0.0,0.0,97,0.00,,,0.46,Wunderground v.1.15,2013-06-08 01:30:00,
2013-06-07 21:35:00,63.0,62.1,29.72,SSE,156,0.0,0.0,97,0.00,,,0.46,Wunderground v.1.15,2013-06-08 01:35:00,
2013-06-07 21:40:00,63.0,62.1,29.72,SSE,156,0.0,0.0,97,0.00,,,0.46,Wunderground v.1.15,2013-06-08 01:40:00,
2013-06-07 21:45:00,63.1,62.2,29.72,SSE,156,0.0,0.0,97,0.00,,,0.46,Wunderground v.1.15,2013-06-08 01:45:00,
2013-06-07 21:50:00,63.0,62.1,29.73,SSE,156,0.0,0.0,97,0.00,,,0.46,Wunderground v.1.15,2013-06-08 01:50:00,
2013-06-07 21:55:00,63.0,62.1,29.73,SSE,156,0.0,0.0,97,0.00,,,0.46,Wunderground v.1.15,2013-06-08 01:55:00,
2013-06-07 22:00:00,62.9,62.0,29.74,SSE,156,0.0,0.0,97,0.00,,,0.46,Wunderground v.1.15,2013-06-08 02:00:00,
2013-06-07 22:05:00,62.9,62.0,29.74,SSE,156,0.0,0.0,97,0.00,,,0.46,Wunderground v.1.15,2013-06-08 02:05:00,
2013-06-07 22:10:00,62.9,62.0,29.74,SSE,156,0.0,0.0,97,0.00,,,0.46,Wunderground v.1.15,2013-06-08 02:10:00,
2013-06-07 22:15:00,62.9,62.0,29.75,SSE,156,0.0,0.0,97,0.00,,,0.46,Wunderground v.1.15,2013-06-08 02:15:00,
2013-06-07 22:20:00,62.9,62.0,29.74,SSE,156,0.0,0.0,97,0.00,,,0.46,Wunderground v.1.15,2013-06-08 02:20:00,
2013-06-07 22:25:00,62.9,62.0,29.75,SSE,156,0.0,0.0,97,0.00,,,0.46,Wunderground v.1.15,2013-06-08 02:25:00,
2013-06-07 22:30:00,62.9,62.0,29.75,SSE,156,0.0,0.0,97,0.00,,,0.46,Wunderground v.1.15,2013-06-08 02:30:00,
2013-06-07 22:35:00,62.8,61.9,29.75,SSE,156,0.0,0.0,97,0.00,,,0.46,Wunderground v.1.15,2013-06-08 02:35:00,
2013-06-07 22:40:00,62.8,62.2,29.75,SSE,156,0.0,0.0,98,0.00,,,0.46,Wunderground v.1.15,2013-06-08 02:40:00,
2013-06-07 22:45:00,62.8,62.2,29.75,SSE,156,0.0,0.0,98,0.00,,,0.46,Wunderground v.1.15,2013-06-08 02:45:00,
2013-06-07 22:50:00,62.8,62.2,29.76,SSE,156,0.0,0.0,98,0.00,,,0.46,Wunderground v.1.15,2013-06-08 02:50:00,
2013-06-07 22:55:00,62.8,62.2,29.76,SSE,156,0.0,0.0,98,0.00,,,0.46,Wunderground v.1.15,2013-06-08 02:55:00,
2013-06-07 23:00:00,62.8,62.2,29.76,SSE,156,0.0,0.0,98,0.00,,,0.46,Wunderground v.1.15,2013-06-08 03:00:00,
2013-06-07 23:05:00,62.7,62.1,29.77,SSE,156,0.0,0.0,98,0.00,,,0.46,Wunderground v.1.15,2013-06-08 03:05:00,
2013-06-07 23:10:00,62.7,62.1,29.76,SSE,156,0.0,0.0,98,0.00,,,0.46,Wunderground v.1.15,2013-06-08 03:10:00,
2013-06-07 23:20:00,62.7,62.1,29.77,SSE,156,0.0,0.0,98,0.00,,,0.46,Wunderground v.1.15,2013-06-08 03:20:00,
2013-06-07 23:25:00,62.7,62.1,29.77,SSE,156,0.0,0.0,98,0.00,,,0.46,Wunderground v.1.15,2013-06-08 03:25:00,
2013-06-07 23:30:00,62.8,62.2,29.77,SSE,156,0.0,0.0,98,0.00,,,0.46,Wunderground v.1.15,2013-06-08 03:30:00,
2013-06-07 23:35:00,62.8,62.2,29.77,SSE,156,0.0,0.0,98,0.00,,,0.46,Wunderground v.1.15,2013-06-08 03:35:00,
2013-06-07 23:40:00,62.8,62.2,29.76,SSE,156,0.0,0.0,98,0.00,,,0.46,Wunderground v.1.15,2013-06-08 03:40:00,
2013-06-07 23:45:00,62.8,62.2,29.77,SSE,156,0.0,0.0,98,0.00,,,0.46,Wunderground v.1.15,2013-06-08 03:45:00,
2013-06-07 23:50:00,62.8,62.2,29.77,SSE,156,0.0,0.0,98,0.00,,,0.46,Wunderground v.1.15,2013-06-08 03:50:00,
2013-06-07 23:55:00,62.8,62.2,29.76,SSE,156,0.0,0.0,98,0.00,,,0.46,Wunderground v.1.15,2013-06-08 03:55:00,